createdAt,value
2023-05-22T00:04:04.821Z,72.32
2023-05-22T00:09:08.156Z,72.88
2023-05-22T00:14:13.843Z,73.38
2023-05-22T00:19:19.985Z,73.76
2023-05-22T00:24:23.248Z,74.16
2023-05-22T00:29:26.556Z,73.93
2023-05-22T00:34:29.926Z,74.29
2023-05-22T00:39:33.317Z,74.61
2023-05-22T00:44:36.812Z,74.90
2023-05-22T00:49:41.214Z,74.99
2023-05-22T00:54:45.729Z,74.93
2023-05-22T00:59:49.377Z,74.95
2023-05-22T01:04:55.832Z,75.32
2023-05-22T01:09:59.180Z,75.47
2023-05-22T01:15:26.800Z,75.63
2023-05-22T01:20:41.715Z,75.45
2023-05-22T01:25:51.249Z,75.67
2023-05-22T01:31:01.404Z,75.79
2023-05-22T01:36:09.161Z,76.23
2023-05-22T01:41:13.555Z,76.61
2023-05-22T01:46:17.565Z,77.33
2023-05-22T01:51:36.899Z,77.49
2023-05-22T01:56:51.154Z,77.58
2023-05-22T02:01:55.688Z,77.85
2023-05-22T02:07:01.455Z,78.26
2023-05-22T02:12:05.036Z,78.16
2023-05-22T02:17:08.975Z,78.13
2023-05-22T02:22:15.073Z,78.18
2023-05-22T02:27:18.296Z,78.39
2023-05-22T02:32:22.151Z,78.53
2023-05-22T02:37:37.004Z,78.76
2023-05-22T02:42:43.220Z,79.06
2023-05-22T02:47:47.316Z,79.20
2023-05-22T02:52:51.230Z,79.25
2023-05-22T02:57:57.012Z,79.15
2023-05-22T03:03:01.880Z,79.51
2023-05-22T03:08:06.067Z,79.80
2023-05-22T03:13:09.198Z,79.93
2023-05-22T03:18:13.250Z,80.34
2023-05-22T03:23:16.748Z,80.48
2023-05-22T03:28:21.501Z,80.62
2023-05-22T03:33:25.590Z,81.10
2023-05-22T03:38:29.136Z,81.28
2023-05-22T03:43:32.381Z,81.63
2023-05-22T03:48:35.756Z,81.56
2023-05-22T03:53:39.042Z,82.27
2023-05-22T03:58:42.245Z,82.32
2023-05-22T04:03:46.005Z,82.30
2023-05-22T04:08:49.776Z,82.45
2023-05-22T04:13:53.186Z,82.90
2023-05-22T04:18:56.522Z,82.76
2023-05-22T04:24:01.865Z,82.92
2023-05-22T04:29:10.668Z,81.14
2023-05-22T04:34:16.283Z,81.08
2023-05-22T04:39:19.619Z,78.51
2023-05-22T04:44:23.701Z,76.95
2023-05-22T04:49:28.830Z,75.61
2023-05-22T04:54:32.304Z,73.97
2023-05-22T04:59:40.174Z,73.19
2023-05-22T05:04:43.819Z,72.45
2023-05-22T05:09:47.108Z,71.51
2023-05-22T05:14:50.329Z,70.97
2023-05-22T05:19:53.692Z,70.62
2023-05-22T05:24:57.749Z,70.64
2023-05-22T05:30:01.381Z,68.75
2023-05-22T05:35:17.288Z,68.98
2023-05-22T05:40:28.167Z,68.53
2023-05-22T05:45:31.790Z,67.47
2023-05-22T05:50:35.441Z,66.96
2023-05-22T05:55:39.226Z,66.26
2023-05-22T06:00:42.621Z,66.15
2023-05-22T06:05:46.424Z,64.70
2023-05-22T06:10:57.589Z,62.48
2023-05-22T06:16:13.311Z,61.24
2023-05-22T06:21:18.041Z,60.57
2023-05-22T06:26:23.673Z,58.86
2023-05-22T06:31:28.313Z,57.88
2023-05-22T06:36:34.996Z,58.35
2023-05-22T06:41:38.896Z,56.71
2023-05-22T06:46:43.581Z,56.68
2023-05-22T06:51:53.352Z,56.48
2023-05-22T06:56:57.711Z,54.37
2023-05-22T07:02:03.592Z,53.54
2023-05-22T07:07:19.324Z,53.82
2023-05-22T07:12:26.139Z,53.20
2023-05-22T07:17:29.983Z,52.25
2023-05-22T07:22:33.934Z,52.19
2023-05-22T07:27:37.988Z,51.53
2023-05-22T07:32:41.581Z,51.06
2023-05-22T07:37:45.296Z,50.49
2023-05-22T07:42:48.486Z,49.62
2023-05-22T07:47:54.227Z,50.14
2023-05-22T07:53:00.037Z,50.88
2023-05-22T07:58:04.507Z,50.74
2023-05-22T08:03:12.504Z,51.03
2023-05-22T08:08:16.094Z,50.60
2023-05-22T08:13:19.634Z,50.29
2023-05-22T08:18:22.899Z,48.80
2023-05-22T08:23:26.256Z,48.63
2023-05-22T08:28:29.414Z,48.28
2023-05-22T08:33:32.805Z,48.17
2023-05-22T08:38:35.975Z,47.33
2023-05-22T08:43:41.124Z,44.81
2023-05-22T08:48:45.146Z,44.99
2023-05-22T08:53:52.409Z,45.63
2023-05-22T08:58:56.152Z,44.05
2023-05-22T09:04:03.761Z,44.01
2023-05-22T09:09:07.022Z,43.66
2023-05-22T09:14:11.829Z,44.01
2023-05-22T09:19:16.062Z,43.35
2023-05-22T09:24:19.345Z,42.15
2023-05-22T09:29:22.737Z,41.52
2023-05-22T09:34:30.280Z,40.97
2023-05-22T09:39:43.098Z,39.78
2023-05-22T09:44:50.183Z,41.24
2023-05-22T09:49:59.081Z,40.98
2023-05-22T09:55:07.284Z,40.21
2023-05-22T10:00:18.680Z,40.09
2023-05-22T10:05:29.499Z,41.30
2023-05-22T10:10:34.187Z,41.61
2023-05-22T10:15:38.651Z,41.17
2023-05-22T10:20:42.452Z,40.21
2023-05-22T10:25:46.266Z,40.39
2023-05-22T10:31:14.709Z,40.45
2023-05-22T10:37:13.104Z,40.54
2023-05-22T10:42:20.703Z,40.30
2023-05-22T10:47:23.992Z,40.69
2023-05-22T10:52:27.322Z,40.22
2023-05-22T10:57:34.704Z,39.71
2023-05-22T11:02:43.574Z,39.71
2023-05-22T11:07:49.282Z,38.37
2023-05-22T11:13:12.102Z,39.45
2023-05-22T11:18:16.935Z,38.68
2023-05-22T11:23:20.560Z,37.61
2023-05-22T11:28:24.795Z,38.02
2023-05-22T11:33:28.256Z,37.35
2023-05-22T11:38:32.413Z,37.79
2023-05-22T11:43:37.143Z,37.12
2023-05-22T11:48:43.942Z,36.61
2023-05-22T11:53:48.306Z,37.01
2023-05-22T11:58:52.079Z,35.99
2023-05-22T12:03:55.379Z,36.40
2023-05-22T12:08:59.442Z,37.72
2023-05-22T12:14:06.013Z,37.03
2023-05-22T12:19:11.030Z,36.30
2023-05-22T12:24:14.287Z,35.93
2023-05-22T12:29:17.992Z,36.55
2023-05-22T12:34:21.385Z,36.46
2023-05-22T12:39:24.716Z,35.98
2023-05-22T12:44:28.004Z,37.31
2023-05-22T12:49:31.276Z,36.45
2023-05-22T12:54:34.423Z,36.05
2023-05-22T12:59:37.738Z,36.08
2023-05-22T13:04:40.962Z,36.37
2023-05-22T13:09:44.712Z,36.40
2023-05-22T13:14:47.929Z,36.84
2023-05-22T13:19:51.792Z,36.95
2023-05-22T13:24:55.002Z,36.72
2023-05-22T13:29:58.229Z,36.10
2023-05-22T13:35:01.674Z,36.32
2023-05-22T13:40:05.655Z,36.19
2023-05-22T13:45:09.846Z,36.86
2023-05-22T13:50:13.278Z,36.61
2023-05-22T13:55:16.791Z,35.78
2023-05-22T14:00:20.688Z,35.89
2023-05-22T14:05:24.711Z,36.52
2023-05-22T14:10:28.015Z,36.97
2023-05-22T14:15:31.410Z,36.95
2023-05-22T14:20:34.850Z,36.94
2023-05-22T14:25:38.229Z,36.21
2023-05-22T14:30:41.751Z,37.03
2023-05-22T14:35:45.075Z,36.64
2023-05-22T14:40:48.441Z,36.90
2023-05-22T14:45:51.807Z,36.71
2023-05-22T14:50:55.407Z,36.40
2023-05-22T14:55:58.915Z,36.40
2023-05-22T15:01:02.237Z,36.64
2023-05-22T15:06:06.200Z,36.47
2023-05-22T15:11:09.450Z,36.64
2023-05-22T15:16:12.602Z,37.26
2023-05-22T15:21:16.070Z,37.32
2023-05-22T15:26:19.318Z,37.34
2023-05-22T15:31:22.696Z,36.65
2023-05-22T15:36:28.316Z,36.43
2023-05-22T15:41:31.602Z,37.10
2023-05-22T15:46:34.934Z,37.26
2023-05-22T15:51:39.086Z,37.06
2023-05-22T15:56:42.203Z,37.41
2023-05-22T16:01:46.067Z,37.38
2023-05-22T16:06:49.406Z,37.82
2023-05-22T16:11:52.586Z,37.84
2023-05-22T16:16:56.322Z,38.03
2023-05-22T16:22:00.247Z,38.02
2023-05-22T16:27:03.626Z,37.88
2023-05-22T16:32:07.051Z,37.73
2023-05-22T16:37:10.463Z,37.98
2023-05-22T16:42:16.838Z,37.59
2023-05-22T16:47:21.902Z,37.68
2023-05-22T16:52:26.470Z,38.17
2023-05-22T16:57:29.775Z,38.29
2023-05-22T17:02:33.624Z,38.51
2023-05-22T17:07:37.886Z,38.52
2023-05-22T17:12:41.351Z,38.95
2023-05-22T17:17:44.612Z,38.84
2023-05-22T17:22:47.808Z,39.42
2023-05-22T17:27:50.980Z,39.80
2023-05-22T17:32:57.071Z,39.98
2023-05-22T17:38:00.506Z,40.05
2023-05-22T17:43:03.832Z,40.41
2023-05-22T17:48:07.979Z,41.01
2023-05-22T17:53:13.592Z,41.19
2023-05-22T17:58:17.315Z,41.29
2023-05-22T18:03:20.759Z,41.60
2023-05-22T18:08:24.321Z,42.26
2023-05-22T18:13:27.420Z,42.46
2023-05-22T18:18:30.698Z,43.94
2023-05-22T18:23:34.006Z,44.53
2023-05-22T18:28:37.450Z,45.52
2023-05-22T18:33:45.286Z,46.63
2023-05-22T18:38:48.428Z,47.28
2023-05-22T18:43:51.626Z,48.54
2023-05-22T18:48:55.600Z,49.26
2023-05-22T18:53:58.896Z,50.39
2023-05-22T18:59:02.167Z,51.09
2023-05-22T19:04:07.934Z,51.42
2023-05-22T19:09:12.189Z,52.01
2023-05-22T19:14:15.828Z,52.63
2023-05-22T19:19:22.519Z,53.39
2023-05-22T19:24:28.557Z,54.23
2023-05-22T19:29:33.229Z,54.90
2023-05-22T19:34:38.495Z,56.10
2023-05-22T19:39:42.783Z,56.51
2023-05-22T19:44:46.097Z,56.96
2023-05-22T19:49:50.985Z,57.50
2023-05-22T19:54:56.002Z,59.06
2023-05-22T19:59:59.385Z,59.06
2023-05-22T20:05:02.919Z,58.79
2023-05-22T20:10:09.631Z,59.22
2023-05-22T20:15:15.218Z,60.48
2023-05-22T20:20:19.804Z,61.32
2023-05-22T20:25:23.710Z,61.71
2023-05-22T20:30:26.971Z,61.91
2023-05-22T20:35:31.165Z,62.25
2023-05-22T20:40:34.659Z,62.32
2023-05-22T20:45:38.251Z,62.74
2023-05-22T20:50:42.533Z,63.04
2023-05-22T20:55:46.153Z,63.30
2023-05-22T21:00:50.305Z,64.03
2023-05-22T21:05:53.874Z,64.26
2023-05-22T21:10:57.124Z,64.55
2023-05-22T21:16:00.512Z,64.28
2023-05-22T21:21:04.079Z,64.79
2023-05-22T21:26:07.455Z,65.60
2023-05-22T21:31:11.054Z,66.36
2023-05-22T21:36:14.441Z,66.74
2023-05-22T21:41:17.854Z,66.30
2023-05-22T21:46:24.825Z,66.38
2023-05-22T21:51:28.464Z,66.93
2023-05-22T21:56:34.147Z,67.45
2023-05-22T22:01:37.465Z,67.93
2023-05-22T22:06:41.004Z,68.00
2023-05-22T22:11:44.531Z,68.44
2023-05-22T22:16:48.179Z,68.74
2023-05-22T22:21:51.585Z,69.21
2023-05-22T22:26:55.254Z,69.28
2023-05-22T22:31:58.556Z,69.78
2023-05-22T22:37:02.090Z,70.03
2023-05-22T22:42:05.579Z,70.50
2023-05-22T22:47:09.431Z,70.41
2023-05-22T22:52:13.054Z,70.92
2023-05-22T22:57:16.639Z,71.85
2023-05-22T23:02:19.992Z,72.35
2023-05-22T23:07:24.347Z,73.10
2023-05-22T23:12:27.623Z,73.50
2023-05-22T23:17:31.375Z,72.96
2023-05-22T23:22:35.828Z,73.30
2023-05-22T23:27:39.784Z,73.42
2023-05-22T23:32:43.067Z,73.63
2023-05-22T23:37:46.293Z,74.33
2023-05-22T23:42:49.630Z,74.44
2023-05-22T23:47:53.014Z,74.75
2023-05-22T23:52:56.276Z,74.70
2023-05-22T23:57:59.646Z,74.59
